Darstellungsparameter: Aktuell verwendete Einstellungen:
Skalierung der Graphiken ... ?
xyx+y,   Skalierungsfaktor:      Skalierung: Modus: x, Faktor: 1
Darstellungszeitraum ... ?
Vom - - bis: - -   Zeitraum: 02.06.2010 - 08.06.2010
Min/Max/Avg-Anzeige ... ?
Zeige MMA aktuell
Zeige MMA Monat
Zeige MMA alles
Zeige --A aktuell
Zeige --A Monat
Zeige --A alles
Keine MMA-Anzeige
MMA:
Average (ber die Originaldaten)
MMA-Basis: 02.06.2010 - 08.06.2010
Quicknavigation für Darstellung... ?
Tage:      1T, 2T, 3T, 5T -1T -2T -3T -5T +1T +2T +3T +5T
Wochen: 1W, 2W, 3W -1W -2W -3W +1W +2W +3W
Monate: 1M, 3M, 6M -1M -3M -6M +1M +3M +6M
Jahre:    1J, 3J, 5J, 10J -1J -3J -5J -10J +1J +3J +5J +10J
Nutze für die Darstellung ... ?
Originaldaten oder Mittelwerte auf ...
Stundenbasis Tagesbasis Wochenbasis
Monatsbasis Jahresbasis      Datenbasis: Original-Daten
Darstellen als:
Statistik (Auto) Statistik J:M      Darstellung:
Zur Graphik,    zurück zur Übersicht aller Sensoren.
 
Tabellarische Datenbersicht: ?
 
Sensor: Nr:Datum:Temp:Abs-Feuchte:Windchill:Wind:
Aussen-T/F 1 02-06-2010 00:11:02 14.5 C 8.08 g/m*3 14.5 C 0 km/h
2 02-06-2010 00:23:01 14.4 C 8.28 g/m*3 14.4 C 0 km/h
3 02-06-2010 00:35:01 14.4 C 8.41 g/m*3 14.4 C 0 km/h
4 02-06-2010 00:47:01 14.5 C 8.58 g/m*3 14.5 C 0 km/h
5 02-06-2010 00:59:01 14.4 C 8.41 g/m*3 14.4 C 0 km/h
6 02-06-2010 01:11:02 14.4 C 8.28 g/m*3 14.4 C 0 km/h
7 02-06-2010 01:23:01 14.3 C 8.35 g/m*3 14.3 C 0 km/h
8 02-06-2010 01:35:02 14.2 C 8.43 g/m*3 14.2 C 0 km/h
9 02-06-2010 01:47:01 14.1 C 8.37 g/m*3 14.1 C 0 km/h
10 02-06-2010 01:59:01 14.1 C 8.5 g/m*3 14.1 C 0 km/h
11 02-06-2010 02:11:02 13.8 C 8.58 g/m*3 13.8 C 0 km/h
12 02-06-2010 02:23:02 13.7 C 8.64 g/m*3 13.7 C 0 km/h
13 02-06-2010 02:35:01 13.6 C 8.71 g/m*3 13.6 C 0 km/h
14 02-06-2010 02:47:01 13.4 C 8.72 g/m*3 13.4 C 0 km/h
15 02-06-2010 02:59:01 13.4 C 8.83 g/m*3 13.4 C 0 km/h
16 02-06-2010 03:11:01 13.3 C 8.78 g/m*3 13.3 C 0 km/h
17 02-06-2010 03:23:01 13.3 C 8.78 g/m*3 13.3 C 0 km/h
18 02-06-2010 03:35:01 13.4 C 8.83 g/m*3 13.4 C 0 km/h
19 02-06-2010 03:47:01 13.3 C 8.78 g/m*3 13.3 C 0 km/h
20 02-06-2010 03:59:01 13.4 C 8.83 g/m*3 13.4 C 0 km/h
21 02-06-2010 04:11:02 13.2 C 8.5 g/m*3 13.2 C 0 km/h
22 02-06-2010 04:23:01 13.3 C 8.32 g/m*3 13.3 C 0 km/h
23 02-06-2010 04:35:01 13.4 C 8.37 g/m*3 13.4 C 0 km/h
24 02-06-2010 04:47:01 13.5 C 8.42 g/m*3 13.5 C 0 km/h
25 02-06-2010 04:59:01 13.4 C 8.37 g/m*3 13.4 C 0 km/h
Sensor: Nr:Datum:Temp:Abs-Feuchte:Windchill:Wind:
Aussen-T/F 26 02-06-2010 05:11:01 13.4 C 8.37 g/m*3 13.4 C 0 km/h
27 02-06-2010 05:23:02 13.3 C 8.32 g/m*3 13.3 C 0 km/h
28 02-06-2010 05:35:01 13.4 C 8.49 g/m*3 13.4 C 0 km/h
29 02-06-2010 05:47:01 13.2 C 8.38 g/m*3 13.2 C 0 km/h
30 02-06-2010 05:59:01 13.2 C 8.38 g/m*3 13.2 C 0 km/h
31 02-06-2010 06:11:01 13.2 C 8.38 g/m*3 13.2 C 0 km/h
32 02-06-2010 06:23:02 13.2 C 8.5 g/m*3 13.2 C 0 km/h
33 02-06-2010 06:35:01 13.2 C 8.61 g/m*3 13.2 C 0 km/h
34 02-06-2010 06:47:02 13.4 C 8.72 g/m*3 13.4 C 0 km/h
35 02-06-2010 06:59:02 13.4 C 8.6 g/m*3 13.4 C 0 km/h
36 02-06-2010 07:11:01 13.6 C 8.59 g/m*3 13.6 C 0 km/h
37 02-06-2010 07:23:01 13.7 C 8.76 g/m*3 13.7 C 0 km/h
38 02-06-2010 07:35:01 13.8 C 8.58 g/m*3 13.8 C 0 km/h
39 02-06-2010 07:47:02 13.9 C 8.51 g/m*3 13.9 C 0 km/h
40 02-06-2010 07:59:02 14.2 C 8.43 g/m*3 14.2 C 0 km/h
41 02-06-2010 08:11:01 14.5 C 8.21 g/m*3 14.5 C 0 km/h
42 02-06-2010 08:23:01 14.5 C 8.21 g/m*3 14.5 C 0 km/h
43 02-06-2010 08:35:01 15.6 C 8.38 g/m*3 15.6 C 0 km/h
44 02-06-2010 08:47:01 15.7 C 8.03 g/m*3 15.7 C 0 km/h
45 02-06-2010 08:59:02 15.2 C 7.92 g/m*3 15.2 C 0 km/h
46 02-06-2010 09:11:01 14.6 C 7.63 g/m*3 14.6 C 0 km/h
47 02-06-2010 09:23:01 14.6 C 7.88 g/m*3 14.6 C 0 km/h
48 02-06-2010 09:35:02 14.8 C 7.85 g/m*3 14.8 C 0 km/h
49 02-06-2010 09:47:01 15.2 C 7.66 g/m*3 15.2 C 0 km/h
50 02-06-2010 09:59:01 16.2 C 7.58 g/m*3 16.2 C 0 km/h
Sensor: Nr:Datum:Temp:Abs-Feuchte:Windchill:Wind:
Aussen-T/F 51 02-06-2010 10:11:01 17 C 6.8 g/m*3 17 C 0 km/h
52 02-06-2010 10:23:01 16.9 C 6.18 g/m*3 16.9 C 0 km/h
53 02-06-2010 10:35:02 17.6 C 6.45 g/m*3 17.6 C 0 km/h
54 02-06-2010 10:47:01 17.9 C 6.57 g/m*3 17.9 C 0 km/h
55 02-06-2010 10:59:01 18.4 C 6.45 g/m*3 18.4 C 0 km/h
56 02-06-2010 11:11:02 18.1 C 6.33 g/m*3 18.1 C 0 km/h
57 02-06-2010 11:23:01 18.5 C 6.33 g/m*3 18.5 C 0 km/h
58 02-06-2010 11:35:01 19.5 C 5.87 g/m*3 19.5 C 0 km/h
59 02-06-2010 11:47:01 20.1 C 5.56 g/m*3 20.1 C 0 km/h
60 02-06-2010 11:59:01 20.3 C 5.8 g/m*3 20.3 C 0 km/h
61 02-06-2010 12:11:02 20.7 C 5.58 g/m*3 20.7 C 0 km/h
62 02-06-2010 12:23:01 21.9 C 5.21 g/m*3 21.9 C 0 km/h
63 02-06-2010 12:35:01 22.5 C 5.19 g/m*3 22.5 C 0 km/h
64 02-06-2010 12:47:01 21.4 C 5.25 g/m*3 21.4 C 0 km/h
65 02-06-2010 12:59:01 22.8 C 5.28 g/m*3 22.8 C 0 km/h
66 02-06-2010 13:11:01 22.9 C 5.11 g/m*3 22.9 C 0 km/h
67 02-06-2010 13:23:01 23.5 C 4.86 g/m*3 23.5 C 0 km/h
68 02-06-2010 13:35:01 24.3 C 4.43 g/m*3 24.3 C 0 km/h
69 02-06-2010 13:47:01 24.3 C 4.43 g/m*3 24.3 C 0 km/h
70 02-06-2010 13:59:01 23.4 C 4.21 g/m*3 23.4 C 0 km/h
71 02-06-2010 14:11:01 23.5 C 4.44 g/m*3 23.5 C 0 km/h
72 02-06-2010 14:23:02 22.8 C 4.67 g/m*3 22.8 C 0 km/h
73 02-06-2010 14:35:01 23.5 C 4.23 g/m*3 23.5 C 0 km/h
74 02-06-2010 14:47:02 23.4 C 4.21 g/m*3 23.4 C 0 km/h
75 02-06-2010 14:59:02 24.3 C 4.65 g/m*3 24.3 C 0 km/h
Sensor: Nr:Datum:Temp:Abs-Feuchte:Windchill:Wind:
Aussen-T/F 76 02-06-2010 15:11:01 22.5 C 4.79 g/m*3 22.5 C 0 km/h
77 02-06-2010 15:23:02 22.8 C 5.49 g/m*3 22.8 C 0 km/h
78 02-06-2010 15:35:01 22.2 C 5.89 g/m*3 22.2 C 0 km/h
79 02-06-2010 15:47:02 23.2 C 5.82 g/m*3 23.2 C 0 km/h
80 02-06-2010 15:59:02 22.2 C 5.89 g/m*3 22.2 C 0 km/h
81 02-06-2010 16:11:01 21.7 C 6.49 g/m*3 21.7 C 0 km/h
82 02-06-2010 16:23:02 21.5 C 6.6 g/m*3 21.5 C 0 km/h
83 02-06-2010 16:35:01 21.1 C 6.63 g/m*3 21.1 C 0 km/h
84 02-06-2010 16:47:02 20.7 C 7.02 g/m*3 20.7 C 0 km/h
85 02-06-2010 16:59:02 20.4 C 6.9 g/m*3 20.4 C 0 km/h
86 02-06-2010 17:11:01 20.8 C 7.06 g/m*3 20.8 C 0 km/h
87 02-06-2010 17:23:01 20.9 C 7.1 g/m*3 20.9 C 0 km/h
88 02-06-2010 17:35:02 20.3 C 7.21 g/m*3 20.3 C 0 km/h
89 02-06-2010 17:47:02 20.1 C 6.95 g/m*3 20.1 C 0 km/h
90 02-06-2010 17:59:02 20.1 C 7.13 g/m*3 20.1 C 0 km/h
91 02-06-2010 18:11:01 20.3 C 7.03 g/m*3 20.3 C 0 km/h
92 02-06-2010 18:23:01 20.4 C 7.43 g/m*3 20.4 C 0 km/h
93 02-06-2010 18:35:02 22 C 6.99 g/m*3 22 C 0 km/h
94 02-06-2010 18:47:01 23.2 C 6.86 g/m*3 23.2 C 0 km/h
95 02-06-2010 18:59:02 21.4 C 6.94 g/m*3 21.4 C 0 km/h
96 02-06-2010 19:11:01 21 C 6.96 g/m*3 21 C 0 km/h
97 02-06-2010 19:23:01 20.3 C 7.39 g/m*3 20.3 C 0 km/h
98 02-06-2010 19:35:02 20.7 C 7.38 g/m*3 20.7 C 0 km/h
99 02-06-2010 19:47:01 20.6 C 7.52 g/m*3 20.6 C 0 km/h
100 02-06-2010 19:59:01 20.8 C 7.6 g/m*3 20.8 C 0 km/h
Sensor: Nr:Datum:Temp:Abs-Feuchte:Windchill:Wind:
Aussen-T/F 101 02-06-2010 20:11:02 19.9 C 7.56 g/m*3 19.9 C 0 km/h
102 02-06-2010 20:23:01 19.6 C 7.6 g/m*3 19.6 C 0 km/h
103 02-06-2010 20:35:02 20.3 C 7.56 g/m*3 20.3 C 0 km/h
104 02-06-2010 20:47:01 19.7 C 7.64 g/m*3 19.7 C 0 km/h
105 02-06-2010 20:59:01 19.4 C 7.67 g/m*3 19.4 C 0 km/h
106 02-06-2010 21:11:02 18.9 C 7.78 g/m*3 18.9 C 0 km/h
107 02-06-2010 21:23:02 18.5 C 7.91 g/m*3 18.5 C 0 km/h
108 02-06-2010 21:35:01 18.1 C 7.88 g/m*3 18.1 C 0 km/h
109 02-06-2010 21:47:01 18.1 C 8.03 g/m*3 18.1 C 0 km/h
110 02-06-2010 21:59:01 18.1 C 8.19 g/m*3 18.1 C 0 km/h
111 02-06-2010 22:12:05 18.1 C 8.19 g/m*3 18.1 C 0 km/h
112 02-06-2010 22:24:05 18 C 8.29 g/m*3 18 C 0 km/h
113 02-06-2010 22:36:05 17.6 C 8.4 g/m*3 17.6 C 0 km/h
114 02-06-2010 22:48:05 17.2 C 8.2 g/m*3 17.2 C 0 km/h
115 02-06-2010 23:00:05 16.8 C 8.44 g/m*3 16.8 C 0 km/h
116 02-06-2010 23:12:06 16.5 C 8.57 g/m*3 16.5 C 0 km/h
117 02-06-2010 23:24:06 16.4 C 8.37 g/m*3 16.4 C 0 km/h
118 02-06-2010 23:36:06 16.3 C 8.32 g/m*3 16.3 C 0 km/h
119 02-06-2010 23:48:06 16.2 C 8.27 g/m*3 16.2 C 0 km/h
120 03-06-2010 00:00:06 16.1 C 8.36 g/m*3 16.1 C 0 km/h
121 03-06-2010 00:12:06 15.9 C 8.53 g/m*3 15.9 C 0 km/h
122 03-06-2010 00:24:06 15.6 C 8.51 g/m*3 15.6 C 0 km/h
123 03-06-2010 00:36:06 15.4 C 8.54 g/m*3 15.4 C 0 km/h
124 03-06-2010 00:48:06 15.1 C 8.51 g/m*3 15.1 C 0 km/h
125 03-06-2010 01:00:06 15 C 8.59 g/m*3 15 C 0 km/h
Sensor: Nr:Datum:Temp:Abs-Feuchte:Windchill:Wind:
Aussen-T/F 126 03-06-2010 01:12:06 15 C 8.72 g/m*3 15 C 0 km/h
127 03-06-2010 01:24:06 15 C 8.72 g/m*3 15 C 0 km/h
128 03-06-2010 01:36:06 15 C 8.72 g/m*3 15 C 0 km/h
129 03-06-2010 01:48:06 14.8 C 8.74 g/m*3 14.8 C 0 km/h
130 03-06-2010 02:00:06 14.6 C 8.76 g/m*3 14.6 C 0 km/h
131 03-06-2010 02:12:06 14.5 C 8.71 g/m*3 14.5 C 0 km/h
132 03-06-2010 02:24:06 14.4 C 8.65 g/m*3 14.4 C 0 km/h
133 03-06-2010 02:36:06 14.4 C 8.65 g/m*3 14.4 C 0 km/h
134 03-06-2010 02:48:06 14.2 C 8.67 g/m*3 14.2 C 0 km/h
135 03-06-2010 03:00:06 14.2 C 8.55 g/m*3 14.2 C 0 km/h
136 03-06-2010 03:12:06 14.1 C 8.5 g/m*3 14.1 C 0 km/h
137 03-06-2010 03:24:07 14.1 C 8.5 g/m*3 14.1 C 0 km/h
138 03-06-2010 03:36:07 13.9 C 8.51 g/m*3 13.9 C 0 km/h
139 03-06-2010 03:48:07 13.8 C 8.58 g/m*3 13.8 C 0 km/h
140 03-06-2010 04:00:07 13.6 C 8.47 g/m*3 13.6 C 0 km/h
141 03-06-2010 04:12:07 13.3 C 8.43 g/m*3 13.3 C 0 km/h
142 03-06-2010 04:24:07 13 C 8.28 g/m*3 13 C 0 km/h
143 03-06-2010 04:36:07 13.1 C 8.33 g/m*3 13.1 C 0 km/h
144 03-06-2010 04:48:07 13 C 8.28 g/m*3 13 C 0 km/h
145 03-06-2010 05:00:07 13 C 8.28 g/m*3 13 C 0 km/h
146 03-06-2010 05:12:07 12.8 C 8.29 g/m*3 12.8 C 0 km/h
147 03-06-2010 05:24:07 12.7 C 8.35 g/m*3 12.7 C 0 km/h
148 03-06-2010 05:36:07 12.5 C 8.36 g/m*3 12.5 C 0 km/h
149 03-06-2010 05:48:07 12.5 C 8.36 g/m*3 12.5 C 0 km/h
150 03-06-2010 06:00:07 12.4 C 8.3 g/m*3 12.4 C 0 km/h
Sensor: Nr:Datum:Temp:Abs-Feuchte:Windchill:Wind:
Aussen-T/F 151 03-06-2010 06:12:07 12.5 C 8.47 g/m*3 12.5 C 0 km/h
152 03-06-2010 06:24:07 12.6 C 8.3 g/m*3 12.6 C 0 km/h
153 03-06-2010 06:36:07 12.7 C 8.35 g/m*3 12.7 C 0 km/h
154 03-06-2010 06:48:07 12.8 C 8.4 g/m*3 12.8 C 0 km/h
155 03-06-2010 07:00:07 12.9 C 8.45 g/m*3 12.9 C 0 km/h
156 03-06-2010 07:12:06 13 C 8.28 g/m*3 13 C 0 km/h
157 03-06-2010 07:24:05 13.1 C 8.22 g/m*3 13.1 C 0 km/h
158 03-06-2010 07:36:06 13.1 C 8.22 g/m*3 13.1 C 0 km/h
159 03-06-2010 07:48:02 13.3 C 8.32 g/m*3 13.3 C 0 km/h
160 03-06-2010 08:00:02 13.5 C 8.07 g/m*3 13.5 C 0 km/h
161 03-06-2010 08:12:02 13.8 C 8.1 g/m*3 13.8 C 0 km/h
162 03-06-2010 08:24:02 13.9 C 8.03 g/m*3 13.9 C 0 km/h
163 03-06-2010 08:36:02 14.2 C 7.69 g/m*3 14.2 C 0 km/h
164 03-06-2010 08:48:02 14.5 C 7.71 g/m*3 14.5 C 0 km/h
165 03-06-2010 09:00:02 15 C 7.82 g/m*3 15 C 0 km/h
166 03-06-2010 09:12:03 15.4 C 7.49 g/m*3 15.4 C 0 km/h
167 03-06-2010 09:24:02 16 C 7.36 g/m*3 16 C 0 km/h
168 03-06-2010 09:36:02 16.4 C 7.12 g/m*3 16.4 C 0 km/h
169 03-06-2010 09:48:01 16.9 C 7.34 g/m*3 16.9 C 0 km/h
170 03-06-2010 10:00:01 17.2 C 7.18 g/m*3 17.2 C 0 km/h
171 03-06-2010 10:12:02 18.1 C 7.11 g/m*3 18.1 C 0 km/h
172 03-06-2010 10:24:01 18.7 C 6.72 g/m*3 18.7 C 0 km/h
173 03-06-2010 10:36:02 19.1 C 6.88 g/m*3 19.1 C 0 km/h
174 03-06-2010 10:48:02 20 C 6.74 g/m*3 20 C 0 km/h
175 03-06-2010 11:00:02 20.4 C 6.55 g/m*3 20.4 C 0 km/h
Sensor: Nr:Datum:Temp:Abs-Feuchte:Windchill:Wind:
Aussen-T/F 176 03-06-2010 11:12:02 20.8 C 6.34 g/m*3 20.8 C 0 km/h
177 03-06-2010 11:24:03 20.7 C 6.3 g/m*3 20.7 C 0 km/h
178 03-06-2010 11:36:02 21.2 C 5.93 g/m*3 21.2 C 0 km/h
179 03-06-2010 11:48:02 22.6 C 6.03 g/m*3 22.6 C 0 km/h
180 03-06-2010 12:00:02 23.2 C 5.61 g/m*3 23.2 C 0 km/h
181 03-06-2010 12:12:02 23.4 C 5.47 g/m*3 23.4 C 0 km/h
182 03-06-2010 12:24:02 25 C 5.52 g/m*3 25 C 0 km/h
183 03-06-2010 12:36:02 24.6 C 5.63 g/m*3 24.6 C 0 km/h
184 03-06-2010 12:48:02 24.6 C 5.85 g/m*3 24.6 C 0 km/h
185 03-06-2010 13:00:02 24.8 C 5.92 g/m*3 24.8 C 0 km/h
186 03-06-2010 13:12:03 26.3 C 4.95 g/m*3 26.3 C 0 km/h
187 03-06-2010 13:24:02 27.6 C 5.32 g/m*3 27.6 C 0 km/h
188 03-06-2010 13:36:03 26.8 C 5.09 g/m*3 26.8 C 0 km/h
189 03-06-2010 13:48:09 26.3 C 4.95 g/m*3 26.3 C 0 km/h
190 03-06-2010 14:00:09 26.4 C 4.98 g/m*3 26.4 C 0 km/h
191 03-06-2010 14:12:05 25.6 C 4.76 g/m*3 25.6 C 0 km/h
192 03-06-2010 14:24:06 25.6 C 4.76 g/m*3 25.6 C 0 km/h
193 03-06-2010 14:36:04 25.9 C 4.84 g/m*3 25.9 C 0 km/h
194 03-06-2010 14:48:02 26.4 C 4.98 g/m*3 26.4 C 0 km/h
195 03-06-2010 15:00:02 28.1 C 5.47 g/m*3 28.1 C 0 km/h
196 03-06-2010 15:12:01 27.8 C 5.38 g/m*3 27.8 C 0 km/h
197 03-06-2010 15:24:01 27.4 C 5.26 g/m*3 27.4 C 0 km/h
198 03-06-2010 15:36:02 28.1 C 5.47 g/m*3 28.1 C 0 km/h
199 03-06-2010 15:48:02 28.3 C 5.53 g/m*3 28.3 C 0 km/h
200 03-06-2010 16:00:02 29.2 C 5.81 g/m*3 29.2 C 0 km/h
Sensor: Nr:Datum:Temp:Abs-Feuchte:Windchill:Wind:
Aussen-T/F 201 03-06-2010 16:12:01 29 C 5.74 g/m*3 29 C 0 km/h
202 03-06-2010 16:24:02 30.1 C 6.1 g/m*3 30.1 C 0 km/h
203 03-06-2010 16:36:02 30.1 C 6.1 g/m*3 30.1 C 0 km/h
204 03-06-2010 16:48:02 29 C 5.74 g/m*3 29 C 0 km/h
205 03-06-2010 17:00:02 30.3 C 6.16 g/m*3 30.3 C 0 km/h
206 03-06-2010 17:12:02 30 C 6.06 g/m*3 30 C 0 km/h
207 03-06-2010 17:24:02 29.8 C 6 g/m*3 29.8 C 0 km/h
208 03-06-2010 17:36:02 29.7 C 5.97 g/m*3 29.7 C 0 km/h
209 03-06-2010 17:48:02 30.1 C 6.1 g/m*3 30.1 C 0 km/h
210 03-06-2010 18:00:02 29.5 C 5.9 g/m*3 29.5 C 0 km/h
211 03-06-2010 18:12:02 28.7 C 5.65 g/m*3 28.7 C 0 km/h
212 03-06-2010 18:24:02 28.8 C 5.68 g/m*3 28.8 C 0 km/h
213 03-06-2010 18:36:02 29.4 C 5.87 g/m*3 29.4 C 0 km/h
214 03-06-2010 18:48:02 28.5 C 5.59 g/m*3 28.5 C 0 km/h
215 03-06-2010 19:00:02 28.2 C 5.5 g/m*3 28.2 C 0 km/h
216 03-06-2010 19:12:02 28.6 C 5.62 g/m*3 28.6 C 0 km/h
217 03-06-2010 19:24:03 29.6 C 5.94 g/m*3 29.6 C 0 km/h
218 03-06-2010 19:36:02 29.8 C 6 g/m*3 29.8 C 0 km/h
219 03-06-2010 19:48:02 29.2 C 5.81 g/m*3 29.2 C 0 km/h
220 03-06-2010 20:00:02 28.1 C 5.47 g/m*3 28.1 C 0 km/h
221 03-06-2010 20:12:01 27.9 C 5.41 g/m*3 27.9 C 0 km/h
222 03-06-2010 20:24:02 26.4 C 4.98 g/m*3 26.4 C 0 km/h
223 03-06-2010 20:36:01 26.3 C 5.45 g/m*3 26.3 C 0 km/h
224 03-06-2010 20:48:02 26.3 C 5.45 g/m*3 26.3 C 0 km/h
225 03-06-2010 21:00:02 25.7 C 5.75 g/m*3 25.7 C 0 km/h
Sensor: Nr:Datum:Temp:Abs-Feuchte:Windchill:Wind:
Aussen-T/F 226 03-06-2010 21:12:02 24.8 C 6.6 g/m*3 24.8 C 0 km/h
227 03-06-2010 21:24:01 23.8 C 6.88 g/m*3 23.8 C 0 km/h
228 03-06-2010 21:36:02 22.7 C 6.87 g/m*3 22.7 C 0 km/h
229 03-06-2010 21:48:01 21.7 C 6.68 g/m*3 21.7 C 0 km/h
230 03-06-2010 22:00:01 21 C 6.41 g/m*3 21 C 0 km/h
231 03-06-2010 22:12:02 20.5 C 6.58 g/m*3 20.5 C 0 km/h
232 03-06-2010 22:24:41 20.1 C 6.43 g/m*3 20.1 C 0 km/h
233 03-06-2010 22:37:03 19.7 C 6.45 g/m*3 19.7 C 0 km/h
234 03-06-2010 22:49:03 19.5 C 6.38 g/m*3 19.5 C 0 km/h
235 03-06-2010 23:01:03 19.3 C 6.63 g/m*3 19.3 C 0 km/h
236 03-06-2010 23:13:03 18.8 C 6.44 g/m*3 18.8 C 0 km/h
237 03-06-2010 23:25:03 18.6 C 6.68 g/m*3 18.6 C 0 km/h
238 03-06-2010 23:37:03 18.3 C 6.57 g/m*3 18.3 C 0 km/h
239 03-06-2010 23:49:03 18.2 C 6.53 g/m*3 18.2 C 0 km/h
240 04-06-2010 00:01:03 17.9 C 6.72 g/m*3 17.9 C 0 km/h
241 04-06-2010 00:13:03 17.7 C 6.79 g/m*3 17.7 C 0 km/h
242 04-06-2010 00:25:03 17.5 C 6.86 g/m*3 17.5 C 0 km/h
243 04-06-2010 00:37:03 17.2 C 6.88 g/m*3 17.2 C 0 km/h
244 04-06-2010 00:49:03 16.9 C 7.05 g/m*3 16.9 C 0 km/h
245 04-06-2010 01:01:03 16.6 C 6.92 g/m*3 16.6 C 0 km/h
246 04-06-2010 01:13:03 16.1 C 6.99 g/m*3 16.1 C 0 km/h
247 04-06-2010 01:25:03 15.9 C 7.18 g/m*3 15.9 C 0 km/h
248 04-06-2010 01:37:04 15.6 C 7.05 g/m*3 15.6 C 0 km/h
249 04-06-2010 01:49:04 15.3 C 7.05 g/m*3 15.3 C 0 km/h
250 04-06-2010 02:01:04 15.2 C 7.14 g/m*3 15.2 C 0 km/h
Sensor: Nr:Datum:Temp:Abs-Feuchte:Windchill:Wind:
Aussen-T/F 251 04-06-2010 02:13:04 14.8 C 7.09 g/m*3 14.8 C 0 km/h
252 04-06-2010 02:25:04 14.5 C 7.21 g/m*3 14.5 C 0 km/h
253 04-06-2010 02:37:04 14.4 C 7.29 g/m*3 14.4 C 0 km/h
254 04-06-2010 02:49:04 14.3 C 7.37 g/m*3 14.3 C 0 km/h
255 04-06-2010 03:01:04 14 C 7.24 g/m*3 14 C 0 km/h
256 04-06-2010 03:13:04 13.9 C 7.43 g/m*3 13.9 C 0 km/h
257 04-06-2010 03:25:04 13.6 C 7.41 g/m*3 13.6 C 0 km/h
258 04-06-2010 03:37:04 13.5 C 7.49 g/m*3 13.5 C 0 km/h
259 04-06-2010 03:49:04 13.2 C 7.58 g/m*3 13.2 C 0 km/h
260 04-06-2010 04:01:04 13.1 C 7.65 g/m*3 13.1 C 0 km/h
261 04-06-2010 04:13:04 13 C 7.6 g/m*3 13 C 0 km/h
262 04-06-2010 04:25:04 12.8 C 7.62 g/m*3 12.8 C 0 km/h
263 04-06-2010 04:37:04 12.7 C 7.68 g/m*3 12.7 C 0 km/h
264 04-06-2010 04:49:04 12.3 C 7.49 g/m*3 12.3 C 0 km/h
265 04-06-2010 05:01:04 12.4 C 7.65 g/m*3 12.4 C 0 km/h
266 04-06-2010 05:13:04 12.4 C 7.54 g/m*3 12.4 C 0 km/h
267 04-06-2010 05:25:04 12 C 7.57 g/m*3 12 C 0 km/h
268 04-06-2010 05:37:04 12 C 7.57 g/m*3 12 C 0 km/h
269 04-06-2010 05:49:04 11.8 C 7.68 g/m*3 11.8 C 0 km/h
270 04-06-2010 06:01:05 11.9 C 7.73 g/m*3 11.9 C 0 km/h
271 04-06-2010 06:13:05 11.8 C 7.79 g/m*3 11.8 C 0 km/h
272 04-06-2010 06:25:05 11.9 C 7.84 g/m*3 11.9 C 0 km/h
273 04-06-2010 06:37:05 12 C 7.89 g/m*3 12 C 0 km/h
274 04-06-2010 06:49:05 12.1 C 7.94 g/m*3 12.1 C 0 km/h
275 04-06-2010 07:01:05 12.1 C 7.94 g/m*3 12.1 C 0 km/h
Sensor: Nr:Datum:Temp:Abs-Feuchte:Windchill:Wind:
Aussen-T/F 276 04-06-2010 07:13:05 12.4 C 8.09 g/m*3 12.4 C 0 km/h
277 04-06-2010 07:25:05 12.4 C 7.98 g/m*3 12.4 C 0 km/h
278 04-06-2010 07:37:03 12.5 C 8.03 g/m*3 12.5 C 0 km/h
279 04-06-2010 07:49:02 12.8 C 8.18 g/m*3 12.8 C 0 km/h
280 04-06-2010 08:01:02 13 C 8.17 g/m*3 13 C 0 km/h
281 04-06-2010 08:13:02 13.3 C 8.2 g/m*3 13.3 C 0 km/h
282 04-06-2010 08:25:01 13.6 C 8.24 g/m*3 13.6 C 0 km/h
283 04-06-2010 08:37:02 14 C 8.32 g/m*3 14 C 0 km/h
284 04-06-2010 08:49:01 14.7 C 8.44 g/m*3 14.7 C 0 km/h
285 04-06-2010 09:01:02 15.4 C 8.41 g/m*3 15.4 C 0 km/h
286 04-06-2010 09:13:02 16 C 8.17 g/m*3 16 C 0 km/h
287 04-06-2010 09:25:02 16.8 C 8.44 g/m*3 16.8 C 0 km/h
288 04-06-2010 09:37:02 17.5 C 8.5 g/m*3 17.5 C 0 km/h
289 04-06-2010 09:49:02 18.2 C 8.24 g/m*3 18.2 C 0 km/h
290 04-06-2010 10:01:02 18.7 C 8.17 g/m*3 18.7 C 0 km/h
291 04-06-2010 10:13:02 19.6 C 8.44 g/m*3 19.6 C 0 km/h
292 04-06-2010 10:25:06 20.2 C 8.04 g/m*3 20.2 C 0 km/h
293 04-06-2010 10:37:09 20.6 C 7.87 g/m*3 20.6 C 0 km/h
294 04-06-2010 10:49:05 21.2 C 7.97 g/m*3 21.2 C 0 km/h
295 04-06-2010 11:01:04 22 C 7.57 g/m*3 22 C 0 km/h
296 04-06-2010 11:13:04 21.4 C 7.12 g/m*3 21.4 C 0 km/h
297 04-06-2010 11:25:03 21.8 C 7.48 g/m*3 21.8 C 0 km/h
298 04-06-2010 11:37:03 22.5 C 6.99 g/m*3 22.5 C 0 km/h
299 04-06-2010 11:49:02 22.8 C 6.71 g/m*3 22.8 C 0 km/h
300 04-06-2010 12:01:01 24.5 C 6.04 g/m*3 24.5 C 0 km/h
Sensor: Nr:Datum:Temp:Abs-Feuchte:Windchill:Wind:
Aussen-T/F 301 04-06-2010 12:13:01 25.7 C 5.99 g/m*3 25.7 C 0 km/h
302 04-06-2010 12:25:02 25.8 C 6.26 g/m*3 25.8 C 0 km/h
303 04-06-2010 12:37:02 26.8 C 5.85 g/m*3 26.8 C 0 km/h
304 04-06-2010 12:49:02 26.3 C 5.2 g/m*3 26.3 C 0 km/h
305 04-06-2010 13:01:02 27.6 C 6.12 g/m*3 27.6 C 0 km/h
306 04-06-2010 13:13:02 28.3 C 5.53 g/m*3 28.3 C 0 km/h
307 04-06-2010 13:25:02 29.6 C 5.94 g/m*3 29.6 C 0 km/h
308 04-06-2010 13:37:02 29.8 C 6 g/m*3 29.8 C 0 km/h
309 04-06-2010 13:49:01 29.6 C 5.94 g/m*3 29.6 C 0 km/h
310 04-06-2010 14:01:02 28.2 C 5.5 g/m*3 28.2 C 0 km/h
311 04-06-2010 14:13:02 27.9 C 5.68 g/m*3 27.9 C 0 km/h
312 04-06-2010 14:25:01 28 C 5.98 g/m*3 28 C 0 km/h
313 04-06-2010 14:37:01 27.7 C 5.62 g/m*3 27.7 C 0 km/h
314 04-06-2010 14:49:01 27.7 C 5.62 g/m*3 27.7 C 0 km/h
315 04-06-2010 15:01:02 28.2 C 5.5 g/m*3 28.2 C 0 km/h
316 04-06-2010 15:13:02 28.2 C 5.5 g/m*3 28.2 C 0 km/h
317 04-06-2010 15:25:01 29.3 C 5.84 g/m*3 29.3 C 0 km/h
318 04-06-2010 15:37:01 29.2 C 5.81 g/m*3 29.2 C 0 km/h
319 04-06-2010 15:49:01 30.8 C 6.33 g/m*3 30.8 C 0 km/h
320 04-06-2010 16:01:02 30.2 C 6.13 g/m*3 30.2 C 0 km/h
321 04-06-2010 16:13:03 30.7 C 6.3 g/m*3 30.7 C 0 km/h
322 04-06-2010 16:25:01 30.1 C 6.1 g/m*3 30.1 C 0 km/h
323 04-06-2010 16:37:02 29.9 C 6.03 g/m*3 29.9 C 0 km/h
324 04-06-2010 16:49:02 31 C 6.4 g/m*3 31 C 0 km/h
325 04-06-2010 17:01:02 31 C 6.4 g/m*3 31 C 0 km/h
Sensor: Nr:Datum:Temp:Abs-Feuchte:Windchill:Wind:
Aussen-T/F 326 04-06-2010 17:13:02 30.4 C 6.2 g/m*3 30.4 C 0 km/h
327 04-06-2010 17:25:02 30.8 C 6.33 g/m*3 30.8 C 0 km/h
328 04-06-2010 17:37:02 31.6 C 6.61 g/m*3 31.6 C 0 km/h
329 04-06-2010 17:49:02 31.4 C 6.54 g/m*3 31.4 C 0 km/h
330 04-06-2010 18:01:02 31.8 C 6.68 g/m*3 31.8 C 0 km/h
331 04-06-2010 18:13:02 32.3 C 6.86 g/m*3 32.3 C 0 km/h
332 04-06-2010 18:25:01 32 C 6.75 g/m*3 32 C 0 km/h
333 04-06-2010 18:37:02 31.5 C 6.57 g/m*3 31.5 C 0 km/h
334 04-06-2010 18:49:02 31.8 C 6.68 g/m*3 31.8 C 0 km/h
335 04-06-2010 19:01:02 30.8 C 6.33 g/m*3 30.8 C 0 km/h
336 04-06-2010 19:13:02 30.6 C 6.26 g/m*3 30.6 C 0 km/h
337 04-06-2010 19:25:02 30.4 C 6.2 g/m*3 30.4 C 0 km/h
338 04-06-2010 19:37:02 30.3 C 6.16 g/m*3 30.3 C 0 km/h
339 04-06-2010 19:49:01 30.1 C 6.1 g/m*3 30.1 C 0 km/h
340 04-06-2010 20:01:02 29.9 C 6.03 g/m*3 29.9 C 0 km/h
341 04-06-2010 20:13:02 29.6 C 5.94 g/m*3 29.6 C 0 km/h
342 04-06-2010 20:25:01 28.9 C 5.71 g/m*3 28.9 C 0 km/h
343 04-06-2010 20:37:01 28.8 C 5.68 g/m*3 28.8 C 0 km/h
344 04-06-2010 20:49:01 28 C 5.98 g/m*3 28 C 0 km/h
345 04-06-2010 21:01:02 26.2 C 5.91 g/m*3 26.2 C 0 km/h
346 04-06-2010 21:13:03 24.9 C 6.18 g/m*3 24.9 C 0 km/h
347 04-06-2010 21:25:01 23.9 C 6.27 g/m*3 23.9 C 0 km/h
348 04-06-2010 21:37:01 23.3 C 6.48 g/m*3 23.3 C 0 km/h
349 04-06-2010 21:49:01 23.2 C 6.44 g/m*3 23.2 C 0 km/h
350 04-06-2010 22:01:02 22.9 C 6.54 g/m*3 22.9 C 0 km/h
Sensor: Nr:Datum:Temp:Abs-Feuchte:Windchill:Wind:
Aussen-T/F 351 04-06-2010 22:13:02 22.5 C 6.79 g/m*3 22.5 C 0 km/h
352 04-06-2010 22:25:01 22.1 C 6.83 g/m*3 22.1 C 0 km/h
353 04-06-2010 22:37:02 21.6 C 7.02 g/m*3 21.6 C 0 km/h
354 04-06-2010 22:50:37 21 C 7.14 g/m*3 21 C 0 km/h
355 04-06-2010 23:02:37 20.5 C 7.47 g/m*3 20.5 C 0 km/h
356 04-06-2010 23:14:37 20.3 C 7.39 g/m*3 20.3 C 0 km/h
357 04-06-2010 23:26:37 19.9 C 7.56 g/m*3 19.9 C 0 km/h
358 04-06-2010 23:38:37 19.4 C 7.67 g/m*3 19.4 C 0 km/h
359 04-06-2010 23:50:37 19 C 7.66 g/m*3 19 C 0 km/h
360 05-06-2010 00:02:37 18.6 C 7.8 g/m*3 18.6 C 0 km/h
361 05-06-2010 00:14:37 18.4 C 7.86 g/m*3 18.4 C 0 km/h
362 05-06-2010 00:26:37 18.1 C 7.88 g/m*3 18.1 C 0 km/h
363 05-06-2010 00:38:37 18 C 7.99 g/m*3 18 C 0 km/h
364 05-06-2010 00:50:37 17.7 C 8 g/m*3 17.7 C 0 km/h
365 05-06-2010 01:02:37 17.5 C 7.9 g/m*3 17.5 C 0 km/h
366 05-06-2010 01:14:37 17.3 C 7.96 g/m*3 17.3 C 0 km/h
367 05-06-2010 01:26:37 17.2 C 7.91 g/m*3 17.2 C 0 km/h
368 05-06-2010 01:38:37 17 C 7.96 g/m*3 17 C 0 km/h
369 05-06-2010 01:50:37 16.7 C 8.1 g/m*3 16.7 C 0 km/h
370 05-06-2010 02:02:37 16.4 C 8.1 g/m*3 16.4 C 0 km/h
371 05-06-2010 02:14:37 16 C 8.04 g/m*3 16 C 0 km/h
372 05-06-2010 02:26:38 15.8 C 8.21 g/m*3 15.8 C 0 km/h
373 05-06-2010 02:38:38 15.6 C 8.25 g/m*3 15.6 C 0 km/h
374 05-06-2010 02:50:38 15.3 C 8.23 g/m*3 15.3 C 0 km/h
375 05-06-2010 03:02:38 15.3 C 8.36 g/m*3 15.3 C 0 km/h
Sensor: Nr:Datum:Temp:Abs-Feuchte:Windchill:Wind:
Aussen-T/F 376 05-06-2010 03:14:38 14.8 C 8.49 g/m*3 14.8 C 0 km/h
377 05-06-2010 03:26:38 14.8 C 8.36 g/m*3 14.8 C 0 km/h
378 05-06-2010 03:38:38 14.7 C 8.44 g/m*3 14.7 C 0 km/h
379 05-06-2010 03:50:38 14.6 C 8.51 g/m*3 14.6 C 0 km/h
380 05-06-2010 04:02:38 14.5 C 8.33 g/m*3 14.5 C 0 km/h
381 05-06-2010 04:14:38 14.5 C 8.33 g/m*3 14.5 C 0 km/h
382 05-06-2010 04:26:38 14.3 C 8.35 g/m*3 14.3 C 0 km/h
383 05-06-2010 04:38:38 14.1 C 8.25 g/m*3 14.1 C 0 km/h
384 05-06-2010 04:50:38 14.3 C 8.48 g/m*3 14.3 C 0 km/h
385 05-06-2010 05:02:38 13.7 C 8.29 g/m*3 13.7 C 0 km/h
386 05-06-2010 05:14:38 13.5 C 8.19 g/m*3 13.5 C 0 km/h
387 05-06-2010 05:26:38 13.5 C 8.3 g/m*3 13.5 C 0 km/h
388 05-06-2010 05:38:38 13.3 C 8.32 g/m*3 13.3 C 0 km/h
389 05-06-2010 05:50:38 13.2 C 8.27 g/m*3 13.2 C 0 km/h
390 05-06-2010 06:02:38 13 C 8.28 g/m*3 13 C 0 km/h
391 05-06-2010 06:14:38 13 C 8.39 g/m*3 13 C 0 km/h
392 05-06-2010 06:26:38 13 C 8.39 g/m*3 13 C 0 km/h
393 05-06-2010 06:38:39 13.2 C 8.61 g/m*3 13.2 C 0 km/h
394 05-06-2010 06:50:39 13.4 C 8.6 g/m*3 13.4 C 0 km/h
395 05-06-2010 07:02:39 13.5 C 8.66 g/m*3 13.5 C 0 km/h
396 05-06-2010 07:14:39 13.8 C 8.7 g/m*3 13.8 C 0 km/h
397 05-06-2010 07:26:39 13.7 C 8.53 g/m*3 13.7 C 0 km/h
398 05-06-2010 07:38:39 13.8 C 8.46 g/m*3 13.8 C 0 km/h
399 05-06-2010 07:50:39 14 C 8.56 g/m*3 14 C 0 km/h
400 05-06-2010 08:02:02 14.4 C 8.65 g/m*3 14.4 C 0 km/h
Sensor: Nr:Datum:Temp:Abs-Feuchte:Windchill:Wind:
Aussen-T/F 401 05-06-2010 08:14:02 14.7 C 8.69 g/m*3 14.7 C 0 km/h
402 05-06-2010 08:26:02 15.2 C 8.31 g/m*3 15.2 C 0 km/h
403 05-06-2010 08:38:02 15.5 C 8.33 g/m*3 15.5 C 0 km/h
404 05-06-2010 08:50:01 15.8 C 8.08 g/m*3 15.8 C 0 km/h
405 05-06-2010 09:02:02 16.4 C 8.37 g/m*3 16.4 C 0 km/h
406 05-06-2010 09:14:02 17.1 C 8.44 g/m*3 17.1 C 0 km/h
407 05-06-2010 09:26:02 17.9 C 8.7 g/m*3 17.9 C 0 km/h
408 05-06-2010 09:38:01 18.7 C 8.81 g/m*3 18.7 C 0 km/h
409 05-06-2010 09:50:02 19.4 C 8.84 g/m*3 19.4 C 0 km/h
410 05-06-2010 10:02:01 19.9 C 8.93 g/m*3 19.9 C 0 km/h
411 05-06-2010 10:14:01 20.9 C 9.11 g/m*3 20.9 C 0 km/h
412 05-06-2010 10:26:02 21.4 C 9 g/m*3 21.4 C 0 km/h
413 05-06-2010 10:38:01 22.5 C 8.99 g/m*3 22.5 C 0 km/h
414 05-06-2010 10:50:02 23 C 8.84 g/m*3 23 C 0 km/h
415 05-06-2010 11:02:01 23.4 C 8.83 g/m*3 23.4 C 0 km/h
416 05-06-2010 11:14:01 24.1 C 8.75 g/m*3 24.1 C 0 km/h
417 05-06-2010 11:26:01 25 C 8.52 g/m*3 25 C 0 km/h
418 05-06-2010 11:38:02 26 C 8.03 g/m*3 26 C 0 km/h
419 05-06-2010 11:50:02 26.7 C 7.85 g/m*3 26.7 C 0 km/h
420 05-06-2010 12:02:01 26.8 C 7.64 g/m*3 26.8 C 0 km/h
421 05-06-2010 12:14:01 27.4 C 6.31 g/m*3 27.4 C 0 km/h
422 05-06-2010 12:26:02 28 C 5.44 g/m*3 28 C 0 km/h
423 05-06-2010 12:38:02 28.9 C 6.28 g/m*3 28.9 C 0 km/h
424 05-06-2010 12:50:02 30.2 C 6.44 g/m*3 30.2 C 0 km/h
425 05-06-2010 13:02:03 29 C 5.74 g/m*3 29 C 0 km/h
Sensor: Nr:Datum:Temp:Abs-Feuchte:Windchill:Wind:
Aussen-T/F 426 05-06-2010 13:14:03 30.1 C 6.1 g/m*3 30.1 C 0 km/h
427 05-06-2010 13:26:02 31.2 C 6.47 g/m*3 31.2 C 0 km/h
428 05-06-2010 13:38:02 31.6 C 6.61 g/m*3 31.6 C 0 km/h
429 05-06-2010 13:50:01 30.9 C 6.37 g/m*3 30.9 C 0 km/h
430 05-06-2010 14:02:02 30.1 C 6.1 g/m*3 30.1 C 0 km/h
431 05-06-2010 14:14:03 29.5 C 5.9 g/m*3 29.5 C 0 km/h
432 05-06-2010 14:26:01 29.9 C 6.03 g/m*3 29.9 C 0 km/h
433 05-06-2010 14:38:01 30.7 C 6.3 g/m*3 30.7 C 0 km/h
434 05-06-2010 14:50:01 31 C 6.4 g/m*3 31 C 0 km/h
435 05-06-2010 15:02:02 30.8 C 6.33 g/m*3 30.8 C 0 km/h
436 05-06-2010 15:14:02 31.6 C 6.61 g/m*3 31.6 C 0 km/h
437 05-06-2010 15:26:02 32.1 C 6.79 g/m*3 32.1 C 0 km/h
438 05-06-2010 15:38:01 32.7 C 7.01 g/m*3 32.7 C 0 km/h
439 05-06-2010 15:50:01 31.8 C 6.68 g/m*3 31.8 C 0 km/h
440 05-06-2010 16:02:01 31.7 C 6.64 g/m*3 31.7 C 0 km/h
441 05-06-2010 16:14:01 32.4 C 6.9 g/m*3 32.4 C 0 km/h
442 05-06-2010 16:26:02 33.1 C 7.16 g/m*3 33.1 C 0 km/h
443 05-06-2010 16:38:01 33.2 C 7.2 g/m*3 33.2 C 0 km/h
444 05-06-2010 16:50:02 33 C 7.12 g/m*3 33 C 0 km/h
445 05-06-2010 17:02:01 33.3 C 7.23 g/m*3 33.3 C 0 km/h
446 05-06-2010 17:14:01 33.3 C 7.23 g/m*3 33.3 C 0 km/h
447 05-06-2010 17:26:01 32.9 C 7.08 g/m*3 32.9 C 0 km/h
448 05-06-2010 17:38:01 33 C 7.12 g/m*3 33 C 0 km/h
449 05-06-2010 17:50:01 33.3 C 7.23 g/m*3 33.3 C 0 km/h
450 05-06-2010 18:02:02 32.9 C 7.08 g/m*3 32.9 C 0 km/h
Sensor: Nr:Datum:Temp:Abs-Feuchte:Windchill:Wind:
Aussen-T/F 451 05-06-2010 18:14:02 33.1 C 7.16 g/m*3 33.1 C 0 km/h
452 05-06-2010 18:26:01 33.2 C 7.2 g/m*3 33.2 C 0 km/h
453 05-06-2010 18:38:01 33.3 C 7.23 g/m*3 33.3 C 0 km/h
454 05-06-2010 18:50:01 32.9 C 7.08 g/m*3 32.9 C 0 km/h
455 05-06-2010 19:02:02 33.1 C 7.16 g/m*3 33.1 C 0 km/h
456 05-06-2010 19:14:02 31.9 C 6.72 g/m*3 31.9 C 0 km/h
457 05-06-2010 19:26:02 31.7 C 6.98 g/m*3 31.7 C 0 km/h
458 05-06-2010 19:38:01 31.2 C 7.12 g/m*3 31.2 C 0 km/h
459 05-06-2010 19:50:01 31 C 7.36 g/m*3 31 C 0 km/h
460 05-06-2010 20:02:01 30.5 C 7.79 g/m*3 30.5 C 0 km/h
461 05-06-2010 20:14:01 29.8 C 7.8 g/m*3 29.8 C 0 km/h
462 05-06-2010 20:26:02 29 C 7.76 g/m*3 29 C 0 km/h
463 05-06-2010 20:38:01 28.5 C 7.83 g/m*3 28.5 C 0 km/h
464 05-06-2010 20:50:02 27.4 C 7.89 g/m*3 27.4 C 0 km/h
465 05-06-2010 21:02:01 26.3 C 7.67 g/m*3 26.3 C 0 km/h
466 05-06-2010 21:14:01 25.7 C 7.9 g/m*3 25.7 C 0 km/h
467 05-06-2010 21:26:02 25.2 C 7.68 g/m*3 25.2 C 0 km/h
468 05-06-2010 21:38:01 25.1 C 7.64 g/m*3 25.1 C 0 km/h
469 05-06-2010 21:50:02 24.5 C 7.83 g/m*3 24.5 C 0 km/h
470 05-06-2010 22:02:02 24.1 C 8.1 g/m*3 24.1 C 0 km/h
471 05-06-2010 22:14:02 23.7 C 8.34 g/m*3 23.7 C 0 km/h
472 05-06-2010 22:26:02 23.2 C 8.32 g/m*3 23.2 C 0 km/h
473 05-06-2010 22:38:02 23 C 8.43 g/m*3 23 C 0 km/h
474 05-06-2010 22:51:02 22.9 C 8.17 g/m*3 22.9 C 0 km/h
475 05-06-2010 23:03:03 22.5 C 8.19 g/m*3 22.5 C 0 km/h
Sensor: Nr:Datum:Temp:Abs-Feuchte:Windchill:Wind:
Aussen-T/F 476 05-06-2010 23:15:03 22.2 C 8.05 g/m*3 22.2 C 0 km/h
477 05-06-2010 23:27:03 21.9 C 8.3 g/m*3 21.9 C 0 km/h
478 05-06-2010 23:39:03 21.5 C 8.49 g/m*3 21.5 C 0 km/h
479 05-06-2010 23:51:03 21.3 C 8.39 g/m*3 21.3 C 0 km/h
480 06-06-2010 00:03:03 21.1 C 8.48 g/m*3 21.1 C 0 km/h
481 06-06-2010 00:15:03 21 C 8.61 g/m*3 21 C 0 km/h
482 06-06-2010 00:27:03 20.8 C 8.69 g/m*3 20.8 C 0 km/h
483 06-06-2010 00:39:03 20.4 C 8.67 g/m*3 20.4 C 0 km/h
484 06-06-2010 00:51:03 20.2 C 8.74 g/m*3 20.2 C 0 km/h
485 06-06-2010 01:03:03 19.9 C 8.93 g/m*3 19.9 C 0 km/h
486 06-06-2010 01:15:03 19.5 C 8.89 g/m*3 19.5 C 0 km/h
487 06-06-2010 01:27:03 19.3 C 8.96 g/m*3 19.3 C 0 km/h
488 06-06-2010 01:39:03 19 C 8.8 g/m*3 19 C 0 km/h
489 06-06-2010 01:51:03 18.7 C 9.13 g/m*3 18.7 C 0 km/h
490 06-06-2010 02:03:03 18.5 C 9.33 g/m*3 18.5 C 0 km/h
491 06-06-2010 02:15:03 18.3 C 9.22 g/m*3 18.3 C 0 km/h
492 06-06-2010 02:27:03 18.1 C 9.27 g/m*3 18.1 C 0 km/h
493 06-06-2010 02:39:03 18.1 C 9.27 g/m*3 18.1 C 0 km/h
494 06-06-2010 02:51:03 17.9 C 9.47 g/m*3 17.9 C 0 km/h
495 06-06-2010 03:03:03 17.7 C 9.35 g/m*3 17.7 C 0 km/h
496 06-06-2010 03:15:03 17.4 C 9.19 g/m*3 17.4 C 0 km/h
497 06-06-2010 03:27:04 17.3 C 9.13 g/m*3 17.3 C 0 km/h
498 06-06-2010 03:39:04 17.3 C 9.28 g/m*3 17.3 C 0 km/h
499 06-06-2010 03:51:04 17.1 C 9.17 g/m*3 17.1 C 0 km/h
500 06-06-2010 04:03:04 16.9 C 9.21 g/m*3 16.9 C 0 km/h
Sensor: Nr:Datum:Temp:Abs-Feuchte:Windchill:Wind:
Aussen-T/F 501 06-06-2010 04:15:04 16.6 C 9.04 g/m*3 16.6 C 0 km/h
502 06-06-2010 04:27:04 16.4 C 9.07 g/m*3 16.4 C 0 km/h
503 06-06-2010 04:39:04 16.2 C 9.1 g/m*3 16.2 C 0 km/h
504 06-06-2010 04:51:04 15.9 C 9.21 g/m*3 15.9 C 0 km/h
505 06-06-2010 05:03:04 15.8 C 9.29 g/m*3 15.8 C 0 km/h
506 06-06-2010 05:15:04 15.6 C 9.18 g/m*3 15.6 C 0 km/h
507 06-06-2010 05:27:04 15.4 C 9.2 g/m*3 15.4 C 0 km/h
508 06-06-2010 05:39:04 15.3 C 9.14 g/m*3 15.3 C 0 km/h
509 06-06-2010 05:51:04 15.2 C 9.22 g/m*3 15.2 C 0 km/h
510 06-06-2010 06:03:04 15.3 C 9.4 g/m*3 15.3 C 0 km/h
511 06-06-2010 06:15:04 15.3 C 9.4 g/m*3 15.3 C 0 km/h
512 06-06-2010 06:27:04 15.4 C 9.46 g/m*3 15.4 C 0 km/h
513 06-06-2010 06:39:04 15.2 C 9.35 g/m*3 15.2 C 0 km/h
514 06-06-2010 06:51:04 15.4 C 9.46 g/m*3 15.4 C 0 km/h
515 06-06-2010 07:03:04 15.5 C 9.52 g/m*3 15.5 C 0 km/h
516 06-06-2010 07:15:04 15.8 C 9.56 g/m*3 15.8 C 0 km/h
517 06-06-2010 07:27:04 16.2 C 9.52 g/m*3 16.2 C 0 km/h
518 06-06-2010 07:39:04 16.5 C 9.55 g/m*3 16.5 C 0 km/h
519 06-06-2010 07:51:04 16.3 C 9.43 g/m*3 16.3 C 0 km/h
520 06-06-2010 08:03:02 16.5 C 9.55 g/m*3 16.5 C 0 km/h
521 06-06-2010 08:15:02 17.1 C 9.46 g/m*3 17.1 C 0 km/h
522 06-06-2010 08:27:02 17.3 C 9.43 g/m*3 17.3 C 0 km/h
523 06-06-2010 08:39:02 17.6 C 9 g/m*3 17.6 C 0 km/h
524 06-06-2010 08:51:01 18.1 C 9.12 g/m*3 18.1 C 0 km/h
525 06-06-2010 09:03:01 18.5 C 9.02 g/m*3 18.5 C 0 km/h
Sensor: Nr:Datum:Temp:Abs-Feuchte:Windchill:Wind:
Aussen-T/F 526 06-06-2010 09:15:01 18.9 C 9.07 g/m*3 18.9 C 0 km/h
527 06-06-2010 09:27:01 19.4 C 9.01 g/m*3 19.4 C 0 km/h
528 06-06-2010 09:39:01 20.1 C 8.87 g/m*3 20.1 C 0 km/h
529 06-06-2010 09:51:01 20.8 C 8.87 g/m*3 20.8 C 0 km/h
530 06-06-2010 10:03:01 21.3 C 8.95 g/m*3 21.3 C 0 km/h
531 06-06-2010 10:15:02 22.4 C 9.53 g/m*3 22.4 C 0 km/h
532 06-06-2010 10:27:02 23.1 C 9.3 g/m*3 23.1 C 0 km/h
533 06-06-2010 10:39:01 24.1 C 9.63 g/m*3 24.1 C 0 km/h
534 06-06-2010 10:51:03 24.6 C 9.45 g/m*3 24.6 C 0 km/h
535 06-06-2010 11:03:02 25.8 C 9.63 g/m*3 25.8 C 0 km/h
536 06-06-2010 11:15:02 26.5 C 9.51 g/m*3 26.5 C 0 km/h
537 06-06-2010 11:27:02 27.2 C 9.37 g/m*3 27.2 C 0 km/h
538 06-06-2010 11:39:02 27.6 C 9.58 g/m*3 27.6 C 0 km/h
539 06-06-2010 11:51:02 28.6 C 9.84 g/m*3 28.6 C 0 km/h
540 06-06-2010 12:03:01 29.1 C 9.53 g/m*3 29.1 C 0 km/h
541 06-06-2010 12:15:02 29.7 C 8.35 g/m*3 29.7 C 0 km/h
542 06-06-2010 12:27:02 29.6 C 8.01 g/m*3 29.6 C 0 km/h
543 06-06-2010 12:39:02 30 C 7.88 g/m*3 30 C 0 km/h
544 06-06-2010 12:51:01 29.4 C 9.69 g/m*3 29.4 C 0 km/h
545 06-06-2010 13:03:02 29.1 C 9.24 g/m*3 29.1 C 0 km/h
546 06-06-2010 13:15:01 29.4 C 9.39 g/m*3 29.4 C 0 km/h
547 06-06-2010 13:27:01 31.6 C 7.27 g/m*3 31.6 C 0 km/h
548 06-06-2010 13:39:02 30.9 C 6.68 g/m*3 30.9 C 0 km/h
549 06-06-2010 13:51:02 29.5 C 8.26 g/m*3 29.5 C 0 km/h
550 06-06-2010 14:03:02 28.9 C 9.71 g/m*3 28.9 C 0 km/h
Sensor: Nr:Datum:Temp:Abs-Feuchte:Windchill:Wind:
Aussen-T/F 551 06-06-2010 14:15:01 30 C 8.19 g/m*3 30 C 0 km/h
552 06-06-2010 14:27:01 30.3 C 7.7 g/m*3 30.3 C 0 km/h
553 06-06-2010 14:39:02 30.6 C 7.83 g/m*3 30.6 C 0 km/h
554 06-06-2010 14:51:02 31 C 8 g/m*3 31 C 0 km/h
555 06-06-2010 15:03:02 30.7 C 7.56 g/m*3 30.7 C 0 km/h
556 06-06-2010 15:15:02 31.3 C 7.48 g/m*3 31.3 C 0 km/h
557 06-06-2010 15:27:02 31.9 C 7.39 g/m*3 31.9 C 0 km/h
558 06-06-2010 15:39:02 31.3 C 7.15 g/m*3 31.3 C 0 km/h
559 06-06-2010 15:51:01 30.4 C 8.99 g/m*3 30.4 C 0 km/h
560 06-06-2010 16:03:02 29.3 C 9.34 g/m*3 29.3 C 0 km/h
561 06-06-2010 16:15:13 25.6 C 8.09 g/m*3 25.6 C 0 km/h
562 06-06-2010 16:27:13 24 C 9.14 g/m*3 24 C 0 km/h
563 06-06-2010 16:39:13 20.6 C 11.63 g/m*3 20.6 C 0 km/h
564 06-06-2010 16:51:13 19.3 C 12.44 g/m*3 19.3 C 0 km/h
565 06-06-2010 17:03:13 18.9 C 13.28 g/m*3 18.9 C 0 km/h
566 06-06-2010 17:15:13 18.5 C 13.13 g/m*3 18.5 C 0 km/h
567 06-06-2010 17:27:02 18.7 C 13.77 g/m*3 18.7 C 0 km/h
568 06-06-2010 17:39:01 18.8 C 14.01 g/m*3 18.8 C 0 km/h
569 06-06-2010 17:51:03 18.6 C 13.85 g/m*3 18.6 C 0 km/h
570 06-06-2010 18:03:02 18.9 C 14.26 g/m*3 18.9 C 0 km/h
571 06-06-2010 18:15:02 19.5 C 14.6 g/m*3 19.5 C 0 km/h
572 06-06-2010 18:27:02 19.3 C 14.26 g/m*3 19.3 C 0 km/h
573 06-06-2010 18:39:02 19.1 C 13.93 g/m*3 19.1 C 0 km/h
574 06-06-2010 18:51:02 19.2 C 14.02 g/m*3 19.2 C 0 km/h
575 06-06-2010 19:03:02 19.4 C 14.35 g/m*3 19.4 C 0 km/h
Sensor: Nr:Datum:Temp:Abs-Feuchte:Windchill:Wind:
Aussen-T/F 576 06-06-2010 19:15:02 19.4 C 14.35 g/m*3 19.4 C 0 km/h
577 06-06-2010 19:27:02 19.3 C 14.26 g/m*3 19.3 C 0 km/h
578 06-06-2010 19:39:01 19.1 C 14.1 g/m*3 19.1 C 0 km/h
579 06-06-2010 19:51:02 18.9 C 14.09 g/m*3 18.9 C 0 km/h
580 06-06-2010 20:03:01 19.2 C 14.35 g/m*3 19.2 C 0 km/h
581 06-06-2010 20:15:01 19.2 C 14.35 g/m*3 19.2 C 0 km/h
582 06-06-2010 20:27:01 19 C 14.01 g/m*3 19 C 0 km/h
583 06-06-2010 20:39:02 18.8 C 14.01 g/m*3 18.8 C 0 km/h
584 06-06-2010 20:51:02 18.8 C 14.01 g/m*3 18.8 C 0 km/h
585 06-06-2010 21:03:02 18.7 C 13.93 g/m*3 18.7 C 0 km/h
586 06-06-2010 21:15:02 18.7 C 13.93 g/m*3 18.7 C 0 km/h
587 06-06-2010 21:27:02 18.6 C 13.85 g/m*3 18.6 C 0 km/h
588 06-06-2010 21:39:02 18.5 C 13.77 g/m*3 18.5 C 0 km/h
589 06-06-2010 21:51:02 18.5 C 13.77 g/m*3 18.5 C 0 km/h
590 06-06-2010 22:03:02 18.4 C 13.68 g/m*3 18.4 C 0 km/h
591 06-06-2010 22:16:02 18.4 C 13.68 g/m*3 18.4 C 0 km/h
592 06-06-2010 22:28:02 18.3 C 13.6 g/m*3 18.3 C 0 km/h
593 06-06-2010 22:40:02 18.3 C 13.6 g/m*3 18.3 C 0 km/h
594 06-06-2010 22:52:02 18.3 C 13.76 g/m*3 18.3 C 0 km/h
595 06-06-2010 23:04:02 18.4 C 13.68 g/m*3 18.4 C 0 km/h
596 06-06-2010 23:16:02 18.5 C 13.77 g/m*3 18.5 C 0 km/h
597 06-06-2010 23:28:02 18.4 C 13.53 g/m*3 18.4 C 0 km/h
598 06-06-2010 23:40:02 18.1 C 13.29 g/m*3 18.1 C 0 km/h
599 06-06-2010 23:52:02 18.1 C 13.29 g/m*3 18.1 C 0 km/h
600 07-06-2010 00:04:02 17.7 C 13.28 g/m*3 17.7 C 0 km/h
Sensor: Nr:Datum:Temp:Abs-Feuchte:Windchill:Wind:
Aussen-T/F 601 07-06-2010 00:16:02 17.9 C 13.44 g/m*3 17.9 C 0 km/h
602 07-06-2010 00:28:02 18 C 13.52 g/m*3 18 C 0 km/h
603 07-06-2010 00:40:02 18 C 13.52 g/m*3 18 C 0 km/h
604 07-06-2010 00:52:02 18 C 13.52 g/m*3 18 C 0 km/h
605 07-06-2010 01:04:02 17.9 C 13.74 g/m*3 17.9 C 0 km/h
606 07-06-2010 01:16:02 17.9 C 13.74 g/m*3 17.9 C 0 km/h
607 07-06-2010 01:28:02 17.8 C 13.81 g/m*3 17.8 C 0 km/h
608 07-06-2010 01:40:02 17.7 C 13.73 g/m*3 17.7 C 0 km/h
609 07-06-2010 01:52:02 17.8 C 13.81 g/m*3 17.8 C 0 km/h
610 07-06-2010 02:04:03 17.9 C 13.89 g/m*3 17.9 C 0 km/h
611 07-06-2010 02:16:03 17.9 C 13.89 g/m*3 17.9 C 0 km/h
612 07-06-2010 02:28:03 17.6 C 13.05 g/m*3 17.6 C 0 km/h
613 07-06-2010 02:40:03 17 C 10.85 g/m*3 17 C 0 km/h
614 07-06-2010 02:52:03 16.4 C 10.89 g/m*3 16.4 C 0 km/h
615 07-06-2010 03:04:03 16.2 C 10.62 g/m*3 16.2 C 0 km/h
616 07-06-2010 03:16:03 15.8 C 10.23 g/m*3 15.8 C 0 km/h
617 07-06-2010 03:28:03 15.3 C 10.06 g/m*3 15.3 C 0 km/h
618 07-06-2010 03:40:03 15 C 10 g/m*3 15 C 0 km/h
619 07-06-2010 03:52:03 15 C 9.49 g/m*3 15 C 0 km/h
620 07-06-2010 04:04:03 14.8 C 9.12 g/m*3 14.8 C 0 km/h
621 07-06-2010 04:16:03 14.4 C 9.02 g/m*3 14.4 C 0 km/h
622 07-06-2010 04:28:03 13.9 C 9.11 g/m*3 13.9 C 0 km/h
623 07-06-2010 04:40:03 13.5 C 9.01 g/m*3 13.5 C 0 km/h
624 07-06-2010 04:52:03 13.4 C 9.18 g/m*3 13.4 C 0 km/h
625 07-06-2010 05:04:03 13.6 C 9.18 g/m*3 13.6 C 0 km/h
Sensor: Nr:Datum:Temp:Abs-Feuchte:Windchill:Wind:
Aussen-T/F 626 07-06-2010 05:16:03 13.6 C 9.06 g/m*3 13.6 C 0 km/h
627 07-06-2010 05:28:03 13.6 C 9.06 g/m*3 13.6 C 0 km/h
628 07-06-2010 05:40:03 13.7 C 9.24 g/m*3 13.7 C 0 km/h
629 07-06-2010 05:52:03 13.5 C 9.24 g/m*3 13.5 C 0 km/h
630 07-06-2010 06:04:04 13.7 C 9.47 g/m*3 13.7 C 0 km/h
631 07-06-2010 06:16:04 14.1 C 9.59 g/m*3 14.1 C 0 km/h
632 07-06-2010 06:28:04 14.5 C 9.33 g/m*3 14.5 C 0 km/h
633 07-06-2010 06:40:04 14.8 C 9.12 g/m*3 14.8 C 0 km/h
634 07-06-2010 06:52:04 14.9 C 9.3 g/m*3 14.9 C 0 km/h
635 07-06-2010 07:04:02 15.1 C 9.03 g/m*3 15.1 C 0 km/h
636 07-06-2010 07:16:02 15.3 C 9.14 g/m*3 15.3 C 0 km/h
637 07-06-2010 07:28:02 15 C 8.98 g/m*3 15 C 0 km/h
638 07-06-2010 07:40:18 14.9 C 9.3 g/m*3 14.9 C 0 km/h
639 07-06-2010 07:52:01 14.9 C 9.43 g/m*3 14.9 C 0 km/h
640 07-06-2010 08:04:02 15.2 C 9.35 g/m*3 15.2 C 0 km/h
641 07-06-2010 08:16:02 15.4 C 9.33 g/m*3 15.4 C 0 km/h
642 07-06-2010 08:28:02 15.6 C 9.31 g/m*3 15.6 C 0 km/h
643 07-06-2010 08:40:01 15.7 C 9.37 g/m*3 15.7 C 0 km/h
644 07-06-2010 08:52:03 15.8 C 9.29 g/m*3 15.8 C 0 km/h
645 07-06-2010 09:04:02 16.5 C 9.55 g/m*3 16.5 C 0 km/h
646 07-06-2010 09:16:02 17.2 C 9.23 g/m*3 17.2 C 0 km/h
647 07-06-2010 09:28:03 17.2 C 9.23 g/m*3 17.2 C 0 km/h
648 07-06-2010 09:40:02 17 C 8.97 g/m*3 17 C 0 km/h
649 07-06-2010 09:52:02 17.5 C 9.09 g/m*3 17.5 C 0 km/h
650 07-06-2010 10:04:01 17.6 C 9.15 g/m*3 17.6 C 0 km/h
Sensor: Nr:Datum:Temp:Abs-Feuchte:Windchill:Wind:
Aussen-T/F 651 07-06-2010 10:16:02 18.1 C 8.96 g/m*3 18.1 C 0 km/h
652 07-06-2010 10:28:02 18.3 C 8.76 g/m*3 18.3 C 0 km/h
653 07-06-2010 10:40:02 18.7 C 8.81 g/m*3 18.7 C 0 km/h
654 07-06-2010 10:52:01 18.9 C 9.07 g/m*3 18.9 C 0 km/h
655 07-06-2010 11:04:02 19.5 C 8.89 g/m*3 19.5 C 0 km/h
656 07-06-2010 11:16:01 19.3 C 8.79 g/m*3 19.3 C 0 km/h
657 07-06-2010 11:28:01 19.1 C 8.69 g/m*3 19.1 C 0 km/h
658 07-06-2010 11:40:01 19.5 C 8.73 g/m*3 19.5 C 0 km/h
659 07-06-2010 11:52:02 19.9 C 8.42 g/m*3 19.9 C 0 km/h
660 07-06-2010 12:04:02 20.7 C 8.1 g/m*3 20.7 C 0 km/h
661 07-06-2010 12:16:01 21.6 C 7.97 g/m*3 21.6 C 0 km/h
662 07-06-2010 12:28:01 21.9 C 7.91 g/m*3 21.9 C 0 km/h
663 07-06-2010 12:40:02 22.4 C 7.94 g/m*3 22.4 C 0 km/h
664 07-06-2010 12:52:02 23.1 C 7.65 g/m*3 23.1 C 0 km/h
665 07-06-2010 13:04:02 23.1 C 7.23 g/m*3 23.1 C 0 km/h
666 07-06-2010 13:16:01 24.3 C 7.3 g/m*3 24.3 C 0 km/h
667 07-06-2010 13:28:01 24.3 C 7.75 g/m*3 24.3 C 0 km/h
668 07-06-2010 13:40:02 23.4 C 6.73 g/m*3 23.4 C 0 km/h
669 07-06-2010 13:52:01 23.8 C 7.31 g/m*3 23.8 C 0 km/h
670 07-06-2010 14:04:02 23.9 C 6.92 g/m*3 23.9 C 0 km/h
671 07-06-2010 14:16:02 23.7 C 7.27 g/m*3 23.7 C 0 km/h
672 07-06-2010 14:28:02 24.1 C 6.78 g/m*3 24.1 C 0 km/h
673 07-06-2010 14:40:02 24.1 C 7 g/m*3 24.1 C 0 km/h
674 07-06-2010 14:52:02 24.2 C 6.82 g/m*3 24.2 C 0 km/h
675 07-06-2010 15:04:01 24.4 C 6.68 g/m*3 24.4 C 0 km/h
Sensor: Nr:Datum:Temp:Abs-Feuchte:Windchill:Wind:
Aussen-T/F 676 07-06-2010 15:16:02 24 C 6.74 g/m*3 24 C 0 km/h
677 07-06-2010 15:28:02 24.7 C 6.79 g/m*3 24.7 C 0 km/h
678 07-06-2010 15:40:01 24.7 C 6.34 g/m*3 24.7 C 0 km/h
679 07-06-2010 15:52:02 23.7 C 6.63 g/m*3 23.7 C 0 km/h
680 07-06-2010 16:04:01 24.8 C 6.6 g/m*3 24.8 C 0 km/h
681 07-06-2010 16:16:01 25.3 C 6.55 g/m*3 25.3 C 0 km/h
682 07-06-2010 16:28:01 25.6 C 6.43 g/m*3 25.6 C 0 km/h
683 07-06-2010 16:40:02 25.1 C 6.02 g/m*3 25.1 C 0 km/h
684 07-06-2010 16:52:02 25.3 C 6.32 g/m*3 25.3 C 0 km/h
685 07-06-2010 17:04:01 24.5 C 6.04 g/m*3 24.5 C 0 km/h
686 07-06-2010 17:16:02 24.8 C 6.15 g/m*3 24.8 C 0 km/h
687 07-06-2010 17:28:02 24.3 C 5.97 g/m*3 24.3 C 0 km/h
688 07-06-2010 17:40:02 24.9 C 5.95 g/m*3 24.9 C 0 km/h
689 07-06-2010 17:52:02 24.8 C 5.69 g/m*3 24.8 C 0 km/h
690 07-06-2010 18:04:03 24.5 C 5.6 g/m*3 24.5 C 0 km/h
691 07-06-2010 18:16:02 26.2 C 5.42 g/m*3 26.2 C 0 km/h
692 07-06-2010 18:28:02 25.6 C 5 g/m*3 25.6 C 0 km/h
693 07-06-2010 18:40:02 26.9 C 5.37 g/m*3 26.9 C 0 km/h
694 07-06-2010 18:52:01 26.4 C 4.98 g/m*3 26.4 C 0 km/h
695 07-06-2010 19:04:02 26.6 C 5.29 g/m*3 26.6 C 0 km/h
696 07-06-2010 19:16:01 26 C 5.11 g/m*3 26 C 0 km/h
697 07-06-2010 19:28:01 25.5 C 5.21 g/m*3 25.5 C 0 km/h
698 07-06-2010 19:40:01 25.2 C 5.35 g/m*3 25.2 C 0 km/h
699 07-06-2010 19:52:01 23.9 C 5.41 g/m*3 23.9 C 0 km/h
700 07-06-2010 20:04:01 24.1 C 5.47 g/m*3 24.1 C 0 km/h
Sensor: Nr:Datum:Temp:Abs-Feuchte:Windchill:Wind:
Aussen-T/F 701 07-06-2010 20:16:02 24.1 C 5.69 g/m*3 24.1 C 0 km/h
702 07-06-2010 20:28:02 23.1 C 5.79 g/m*3 23.1 C 0 km/h
703 07-06-2010 20:40:01 22.3 C 6.12 g/m*3 22.3 C 0 km/h
704 07-06-2010 20:52:01 21.8 C 6.72 g/m*3 21.8 C 0 km/h
705 07-06-2010 21:04:01 21 C 6.41 g/m*3 21 C 0 km/h
706 07-06-2010 21:16:02 20.4 C 6.72 g/m*3 20.4 C 0 km/h
707 07-06-2010 21:28:02 19.9 C 6.87 g/m*3 19.9 C 0 km/h
708 07-06-2010 21:40:01 19.4 C 6.84 g/m*3 19.4 C 0 km/h
709 07-06-2010 21:52:03 19.5 C 7.05 g/m*3 19.5 C 0 km/h
710 07-06-2010 22:04:03 18.9 C 6.97 g/m*3 18.9 C 0 km/h
711 07-06-2010 22:16:02 18.8 C 7.25 g/m*3 18.8 C 0 km/h
712 07-06-2010 22:28:02 18.5 C 7.28 g/m*3 18.5 C 0 km/h
713 07-06-2010 22:40:03 18.3 C 7.35 g/m*3 18.3 C 0 km/h
714 07-06-2010 22:53:02 17.9 C 7.79 g/m*3 17.9 C 0 km/h
715 07-06-2010 23:05:02 17.9 C 7.94 g/m*3 17.9 C 0 km/h
716 07-06-2010 23:17:03 17.4 C 7.85 g/m*3 17.4 C 0 km/h
717 07-06-2010 23:29:03 17 C 7.81 g/m*3 17 C 0 km/h
718 07-06-2010 23:41:03 17 C 8.39 g/m*3 17 C 0 km/h
719 07-06-2010 23:53:03 17 C 8.39 g/m*3 17 C 0 km/h
720 08-06-2010 00:05:03 16.8 C 8.58 g/m*3 16.8 C 0 km/h
721 08-06-2010 00:17:03 16.4 C 8.37 g/m*3 16.4 C 0 km/h
722 08-06-2010 00:29:03 16.3 C 8.46 g/m*3 16.3 C 0 km/h
723 08-06-2010 00:41:03 16.2 C 8.55 g/m*3 16.2 C 0 km/h
724 08-06-2010 00:53:03 16 C 8.45 g/m*3 16 C 0 km/h
725 08-06-2010 01:05:03 15.8 C 8.62 g/m*3 15.8 C 0 km/h
Sensor: Nr:Datum:Temp:Abs-Feuchte:Windchill:Wind:
Aussen-T/F 726 08-06-2010 01:17:03 15.6 C 8.51 g/m*3 15.6 C 0 km/h
727 08-06-2010 01:29:03 15 C 8.33 g/m*3 15 C 0 km/h
728 08-06-2010 01:41:03 14.9 C 8.54 g/m*3 14.9 C 0 km/h
729 08-06-2010 01:53:03 14.8 C 8.49 g/m*3 14.8 C 0 km/h
730 08-06-2010 02:05:03 14.7 C 8.44 g/m*3 14.7 C 0 km/h
731 08-06-2010 02:17:03 14.4 C 8.41 g/m*3 14.4 C 0 km/h
732 08-06-2010 02:29:03 14.1 C 8.25 g/m*3 14.1 C 0 km/h
733 08-06-2010 02:41:03 14 C 8.32 g/m*3 14 C 0 km/h
734 08-06-2010 02:53:03 14.1 C 8.37 g/m*3 14.1 C 0 km/h
735 08-06-2010 03:05:03 14.1 C 8.37 g/m*3 14.1 C 0 km/h
736 08-06-2010 03:17:04 14.1 C 8.37 g/m*3 14.1 C 0 km/h
737 08-06-2010 03:29:04 13.9 C 8.39 g/m*3 13.9 C 0 km/h
738 08-06-2010 03:41:04 13.6 C 8.36 g/m*3 13.6 C 0 km/h
739 08-06-2010 03:53:04 13.5 C 8.3 g/m*3 13.5 C 0 km/h
740 08-06-2010 04:05:04 13.4 C 8.25 g/m*3 13.4 C 0 km/h
741 08-06-2010 04:17:04 13 C 8.05 g/m*3 13 C 0 km/h
742 08-06-2010 04:29:04 13.2 C 8.27 g/m*3 13.2 C 0 km/h
743 08-06-2010 04:41:04 13.2 C 8.27 g/m*3 13.2 C 0 km/h
744 08-06-2010 04:53:04 13.2 C 8.27 g/m*3 13.2 C 0 km/h
745 08-06-2010 05:05:04 13.3 C 8.32 g/m*3 13.3 C 0 km/h
746 08-06-2010 05:17:04 13.4 C 8.49 g/m*3 13.4 C 0 km/h
747 08-06-2010 05:29:04 13.6 C 8.47 g/m*3 13.6 C 0 km/h
748 08-06-2010 05:41:04 13.4 C 8.37 g/m*3 13.4 C 0 km/h
749 08-06-2010 05:53:04 13.3 C 8.43 g/m*3 13.3 C 0 km/h
750 08-06-2010 06:05:04 13.2 C 8.5 g/m*3 13.2 C 0 km/h
Sensor: Nr:Datum:Temp:Abs-Feuchte:Windchill:Wind:
Aussen-T/F 751 08-06-2010 06:17:04 13.5 C 8.66 g/m*3 13.5 C 0 km/h
752 08-06-2010 06:29:04 13.9 C 8.75 g/m*3 13.9 C 0 km/h
753 08-06-2010 06:41:04 13.7 C 8.53 g/m*3 13.7 C 0 km/h
754 08-06-2010 06:53:04 14 C 8.68 g/m*3 14 C 0 km/h
755 08-06-2010 07:05:02 13.9 C 8.63 g/m*3 13.9 C 0 km/h
756 08-06-2010 07:17:01 13.9 C 8.75 g/m*3 13.9 C 0 km/h
757 08-06-2010 07:29:01 14.2 C 8.79 g/m*3 14.2 C 0 km/h
758 08-06-2010 07:41:02 14.6 C 8.88 g/m*3 14.6 C 0 km/h
759 08-06-2010 07:53:02 15.2 C 8.96 g/m*3 15.2 C 0 km/h
760 08-06-2010 08:05:02 15.6 C 9.04 g/m*3 15.6 C 0 km/h
761 08-06-2010 08:17:02 16 C 8.86 g/m*3 16 C 0 km/h
762 08-06-2010 08:29:02 16.3 C 8.88 g/m*3 16.3 C 0 km/h
763 08-06-2010 08:41:02 17.2 C 8.93 g/m*3 17.2 C 0 km/h
764 08-06-2010 08:53:02 17.4 C 8.74 g/m*3 17.4 C 0 km/h
765 08-06-2010 09:05:03 18.1 C 8.96 g/m*3 18.1 C 0 km/h
766 08-06-2010 09:17:02 18.6 C 8.91 g/m*3 18.6 C 0 km/h
767 08-06-2010 09:29:02 19.2 C 8.9 g/m*3 19.2 C 0 km/h
768 08-06-2010 09:41:02 19.9 C 9.11 g/m*3 19.9 C 0 km/h
769 08-06-2010 09:53:01 20.1 C 8.87 g/m*3 20.1 C 0 km/h
770 08-06-2010 10:05:02 20.6 C 9.49 g/m*3 20.6 C 0 km/h
771 08-06-2010 10:17:01 21.1 C 8.66 g/m*3 21.1 C 0 km/h
772 08-06-2010 10:29:01 21.8 C 8.25 g/m*3 21.8 C 0 km/h
773 08-06-2010 10:41:02 22.6 C 8.44 g/m*3 22.6 C 0 km/h
774 08-06-2010 10:53:01 23.5 C 8.67 g/m*3 23.5 C 0 km/h
775 08-06-2010 11:05:02 24.3 C 8.63 g/m*3 24.3 C 0 km/h
Sensor: Nr:Datum:Temp:Abs-Feuchte:Windchill:Wind:
Aussen-T/F 776 08-06-2010 11:17:02 24.5 C 8.28 g/m*3 24.5 C 0 km/h
777 08-06-2010 11:29:02 25.3 C 7.96 g/m*3 25.3 C 0 km/h
778 08-06-2010 11:41:01 26.3 C 7.67 g/m*3 26.3 C 0 km/h
779 08-06-2010 11:53:01 26.9 C 7.68 g/m*3 26.9 C 0 km/h
780 08-06-2010 12:05:01 27.2 C 7.81 g/m*3 27.2 C 0 km/h
781 08-06-2010 12:17:02 27 C 7.21 g/m*3 27 C 0 km/h
782 08-06-2010 12:29:02 28.8 C 7.39 g/m*3 28.8 C 0 km/h
783 08-06-2010 12:41:01 28.4 C 6.67 g/m*3 28.4 C 0 km/h
784 08-06-2010 12:53:02 28.2 C 6.87 g/m*3 28.2 C 0 km/h
785 08-06-2010 13:05:01 28 C 7.07 g/m*3 28 C 0 km/h
786 08-06-2010 13:17:02 28.6 C 6.46 g/m*3 28.6 C 0 km/h
787 08-06-2010 13:29:02 27.6 C 6.65 g/m*3 27.6 C 0 km/h
788 08-06-2010 13:41:01 26.7 C 6.58 g/m*3 26.7 C 0 km/h
789 08-06-2010 13:53:02 27 C 6.95 g/m*3 27 C 0 km/h
790 08-06-2010 14:05:02 26.5 C 7.51 g/m*3 26.5 C 0 km/h
791 08-06-2010 14:17:02 26.2 C 7.88 g/m*3 26.2 C 0 km/h
792 08-06-2010 14:29:02 25.7 C 8.38 g/m*3 25.7 C 0 km/h
793 08-06-2010 14:41:02 26.3 C 8.66 g/m*3 26.3 C 0 km/h
794 08-06-2010 14:53:02 26.7 C 8.61 g/m*3 26.7 C 0 km/h
795 08-06-2010 15:05:01 26.9 C 8.96 g/m*3 26.9 C 0 km/h
796 08-06-2010 15:17:02 26.6 C 8.31 g/m*3 26.6 C 0 km/h
797 08-06-2010 15:29:02 26.5 C 8.01 g/m*3 26.5 C 0 km/h
798 08-06-2010 15:41:01 25.6 C 8.33 g/m*3 25.6 C 0 km/h
799 08-06-2010 15:53:02 26.2 C 8.37 g/m*3 26.2 C 0 km/h
800 08-06-2010 16:05:02 25.3 C 7.73 g/m*3 25.3 C 0 km/h
Sensor: Nr:Datum:Temp:Abs-Feuchte:Windchill:Wind:
Aussen-T/F 801 08-06-2010 16:17:02 23.7 C 7.91 g/m*3 23.7 C 0 km/h
802 08-06-2010 16:29:02 22.1 C 8.39 g/m*3 22.1 C 0 km/h
803 08-06-2010 16:41:01 21.7 C 8.39 g/m*3 21.7 C 0 km/h
804 08-06-2010 16:53:02 20.3 C 9.5 g/m*3 20.3 C 0 km/h
805 08-06-2010 17:05:02 20.2 C 11.19 g/m*3 20.2 C 0 km/h
806 08-06-2010 17:17:02 20.6 C 11.1 g/m*3 20.6 C 0 km/h
807 08-06-2010 17:29:02 20.9 C 10.38 g/m*3 20.9 C 0 km/h
808 08-06-2010 17:41:02 21.1 C 9.77 g/m*3 21.1 C 0 km/h
809 08-06-2010 17:53:02 21.4 C 9.94 g/m*3 21.4 C 0 km/h
810 08-06-2010 18:05:03 21.9 C 10.61 g/m*3 21.9 C 0 km/h
811 08-06-2010 18:17:03 22.6 C 9.84 g/m*3 22.6 C 0 km/h
812 08-06-2010 18:29:03 23.1 C 10.13 g/m*3 23.1 C 0 km/h
813 08-06-2010 18:41:03 23.8 C 9.9 g/m*3 23.8 C 0 km/h
814 08-06-2010 18:53:03 23.9 C 10.17 g/m*3 23.9 C 0 km/h
815 08-06-2010 19:05:03 23.7 C 10.69 g/m*3 23.7 C 0 km/h
816 08-06-2010 19:17:02 23.6 C 10.42 g/m*3 23.6 C 0 km/h
817 08-06-2010 19:29:02 23.2 C 9.77 g/m*3 23.2 C 0 km/h
818 08-06-2010 19:41:02 22.9 C 9.81 g/m*3 22.9 C 0 km/h
819 08-06-2010 19:53:02 22.6 C 10.04 g/m*3 22.6 C 0 km/h
820 08-06-2010 20:05:02 22.5 C 10.19 g/m*3 22.5 C 0 km/h
821 08-06-2010 20:17:02 22.3 C 10.27 g/m*3 22.3 C 0 km/h
822 08-06-2010 20:29:02 22 C 10.67 g/m*3 22 C 0 km/h
823 08-06-2010 20:41:02 21.7 C 10.49 g/m*3 21.7 C 0 km/h
824 08-06-2010 20:53:02 21.5 C 10.56 g/m*3 21.5 C 0 km/h
825 08-06-2010 21:05:03 21.3 C 10.44 g/m*3 21.3 C 0 km/h
Sensor: Nr:Datum:Temp:Abs-Feuchte:Windchill:Wind:
Aussen-T/F 826 08-06-2010 21:17:02 21 C 10.62 g/m*3 21 C 0 km/h
827 08-06-2010 21:29:02 20.8 C 10.86 g/m*3 20.8 C 0 km/h
828 08-06-2010 21:41:02 20.4 C 10.79 g/m*3 20.4 C 0 km/h
829 08-06-2010 21:53:02 19.5 C 11.41 g/m*3 19.5 C 0 km/h
830 08-06-2010 22:06:41 19 C 11.9 g/m*3 19 C 0 km/h
831 08-06-2010 22:18:41 18.8 C 12.4 g/m*3 18.8 C 0 km/h
832 08-06-2010 22:30:41 18.5 C 12.34 g/m*3 18.5 C 0 km/h
833 08-06-2010 22:42:41 18.3 C 12.35 g/m*3 18.3 C 0 km/h
834 08-06-2010 22:54:42 18.2 C 12.43 g/m*3 18.2 C 0 km/h
835 08-06-2010 23:06:42 18.1 C 12.52 g/m*3 18.1 C 0 km/h
836 08-06-2010 23:18:42 18.2 C 12.59 g/m*3 18.2 C 0 km/h
837 08-06-2010 23:30:42 18.1 C 12.52 g/m*3 18.1 C 0 km/h
838 08-06-2010 23:42:42 18.1 C 12.36 g/m*3 18.1 C 0 km/h
839 08-06-2010 23:54:42 17.9 C 12.52 g/m*3 17.9 C 0 km/h

Legende:
   Min
   Max


Maximal/Minimal-Werte vom 02.06.2010 - 08.06.2010

Sensor Min Max Avg
Temp
(Aussen-T/F)
11.8 °C
04-06-2010  05:49:04
33.3 °C
05-06-2010  17:02:01
20.41 °C
Abs-Feuchte
(Aussen-T/F)
4.21 g/m*3
02-06-2010  13:59:01
14.6 g/m*3
06-06-2010  18:15:02
8.13 g/m*3
Windchill
(Aussen-T/F)
11.8 C
04-06-2010  05:49:04
33.3 C
05-06-2010  17:02:01
20.38 C

Die Daten stammen von einer Davis Vantage Pro 2 Wetter-Station und werden unter Linux mit der Software wview2wettercgi und aufbereitet. Alle Angaben erfolgen ohne Gewähr für ihre Vollständigkeit oder Richtigkeit.
Kontakt: Rainer Krienke krienke@uni-koblenz.de . Meine Webseiten an der Uni Koblenz oder privat.
Version: $Revision: 0.78 $